Time;durP1;ratioP1;P1;durP2;ratioP2;P2;SDS_P1;SDS_P2;PMS_P1;PMS_P2;Temp;Humidity;BMP_temperature;BMP_pressure;BME280_temperature;BME280_humidity;BME280_pressure;Samples;Min_cycle;Max_cycle;Signal;HPM_P1;HPM_P2
2023/05/06 00:00:43;;;;;;;4.00;2.10;;;;;;;-143.84;56.37;45136.66;5071168;28;20807;-64
2023/05/06 00:03:10;;;;;;;3.67;2.63;;;;;;;-143.84;56.32;45111.91;5070785;28;20433;-65
2023/05/06 00:05:37;;;;;;;6.23;2.97;;;;;;;-143.84;56.32;45125.22;5070696;28;20485;-65
2023/05/06 00:08:05;;;;;;;3.10;2.47;;;;;;;-143.84;56.51;45104.28;5070832;28;20923;-65
2023/05/06 00:10:33;;;;;;;2.43;2.23;;;;;;;-143.84;57.19;45108.09;5070243;28;20505;-65
2023/05/06 00:13:00;;;;;;;4.80;2.37;;;;;;;-143.84;57.45;45125.22;5070520;28;21397;-65
2023/05/06 00:15:28;;;;;;;3.00;2.30;;;;;;;-143.84;57.70;45119.53;5071087;28;21287;-65
2023/05/06 00:17:55;;;;;;;4.17;2.60;;;;;;;-143.84;57.76;45119.53;5070858;28;20438;-65
2023/05/06 00:20:22;;;;;;;3.70;2.50;;;;;;;-143.84;57.75;45136.66;5070711;28;20441;-65
2023/05/06 00:22:49;;;;;;;2.73;2.53;;;;;;;-143.84;58.04;45125.22;5070718;28;20508;-65
2023/05/06 00:25:16;;;;;;;3.27;2.97;;;;;;;-143.84;58.42;45125.22;5076812;28;20444;-65
2023/05/06 00:27:45;;;;;;;2.77;2.57;;;;;;;-143.84;58.53;45100.47;5090997;28;20462;-64
2023/05/06 00:30:13;;;;;;;2.97;2.60;;;;;;;-143.84;58.59;45110.00;5085740;28;20491;-65
2023/05/06 00:32:40;;;;;;;2.67;2.57;;;;;;;-143.84;58.97;45102.38;5070343;28;20856;-65
2023/05/06 00:35:08;;;;;;;4.23;2.60;;;;;;;-143.84;59.28;45115.72;5069864;28;20438;-65
2023/05/06 00:37:35;;;;;;;2.73;2.53;;;;;;;-143.84;58.89;45129.03;5069410;28;20503;-65
2023/05/06 00:40:02;;;;;;;2.80;2.40;;;;;;;-143.84;59.32;45125.22;5069303;28;20437;-65
2023/05/06 00:42:30;;;;;;;13.43;2.47;;;;;;;-143.84;59.09;45121.44;5069725;28;20454;-65
2023/05/06 00:44:58;;;;;;;5.43;2.40;;;;;;;-143.84;59.10;45104.28;5069384;28;20445;-65
2023/05/06 00:47:25;;;;;;;3.40;2.63;;;;;;;-143.84;59.66;45119.53;5069060;28;20525;-65
2023/05/06 00:49:52;;;;;;;2.73;2.53;;;;;;;-143.84;59.38;45127.13;5069478;28;20531;-65
2023/05/06 00:52:20;;;;;;;3.07;2.73;;;;;;;-143.84;59.71;45117.63;5069724;28;20441;-65
2023/05/06 00:54:47;;;;;;;2.80;2.60;;;;;;;-143.84;59.58;45123.34;5070060;28;20429;-72
2023/05/06 00:57:14;;;;;;;2.47;2.30;;;;;;;-143.84;59.66;45106.19;5070447;28;20499;-72
2023/05/06 00:59:42;;;;;;;4.07;2.53;;;;;;;-143.84;59.55;45146.19;5070150;28;20445;-72
2023/05/06 01:02:11;;;;;;;5.00;2.53;;;;;;;-143.84;59.04;45138.56;5069810;28;20434;-72
2023/05/06 01:04:40;;;;;;;2.87;2.50;;;;;;;-143.84;58.50;45110.00;5069481;28;21085;-72
2023/05/06 01:07:16;;;;;;;3.13;2.57;;;;;;;-143.84;57.88;45092.88;5069526;28;20507;-72
2023/05/06 01:09:56;;;;;;;2.33;2.13;;;;;;;-143.84;57.46;45127.13;5069862;28;20897;-72
2023/05/06 01:12:29;;;;;;;3.27;2.53;;;;;;;-143.84;56.99;45106.19;5069785;28;20437;-72
2023/05/06 01:15:05;;;;;;;2.70;2.37;;;;;;;-143.84;56.48;45129.03;5069820;28;20447;-72
2023/05/06 01:17:36;;;;;;;3.67;1.87;;;;;;;-143.84;56.27;45098.56;5069523;28;20934;-72
2023/05/06 01:20:09;;;;;;;2.73;2.17;;;;;;;-143.84;55.97;45106.19;5069455;28;20526;-72
2023/05/06 01:22:38;;;;;;;5.33;2.60;;;;;;;-143.84;55.79;45125.22;5069519;28;20456;-72
2023/05/06 01:25:07;;;;;;;3.63;2.23;;;;;;;-143.84;55.59;45104.28;5072453;28;21227;-72
2023/05/06 01:27:34;;;;;;;3.70;2.63;;;;;;;-143.84;55.76;45108.09;5089818;28;20497;-72
2023/05/06 01:30:02;;;;;;;3.10;2.40;;;;;;;-143.84;55.86;45125.22;5089712;28;20479;-72
2023/05/06 01:32:37;;;;;;;7.23;2.50;;;;;;;-143.84;55.67;45119.53;5089336;28;20433;-72
2023/05/06 01:35:15;;;;;;;3.03;2.13;;;;;;;-143.84;56.12;45110.00;5089196;28;20506;-72
2023/05/06 01:37:47;;;;;;;4.40;2.93;;;;;;;-143.84;56.20;45098.56;5089566;28;21213;-72
2023/05/06 01:40:18;;;;;;;2.53;2.33;;;;;;;-143.84;56.45;45098.56;5089456;28;20444;-72
2023/05/06 01:42:48;;;;;;;3.60;2.10;;;;;;;-143.84;56.60;45108.09;5089513;28;20442;-72
2023/05/06 01:45:16;;;;;;;4.20;2.30;;;;;;;-143.84;56.82;45117.63;5089562;28;20446;-72
2023/05/06 01:47:46;;;;;;;3.63;2.87;;;;;;;-143.84;56.71;45104.28;5089383;28;20890;-71
2023/05/06 01:50:13;;;;;;;3.60;3.10;;;;;;;-143.84;56.77;45090.97;5089204;28;20469;-72
2023/05/06 01:52:40;;;;;;;3.97;2.73;;;;;;;-143.84;56.83;45138.56;5089022;28;20989;-71
2023/05/06 01:55:08;;;;;;;5.93;3.00;;;;;;;-143.84;57.44;45125.22;5088817;28;20509;-72
2023/05/06 01:57:37;;;;;;;2.63;2.43;;;;;;;-143.84;57.97;45125.22;5088591;28;20425;-71
2023/05/06 02:00:05;;;;;;;3.73;3.40;;;;;;;-143.84;58.22;45119.53;5089196;28;20523;-71
2023/05/06 02:02:32;;;;;;;8.03;3.03;;;;;;;-143.84;59.33;45111.91;5089446;28;20835;-71
2023/05/06 02:04:59;;;;;;;4.53;3.37;;;;;;;-143.84;59.79;45090.97;5088860;28;20490;-71
2023/05/06 02:07:26;;;;;;;5.13;3.37;;;;;;;-143.84;60.39;45106.19;5070737;28;20838;-71
2023/05/06 02:09:53;;;;;;;6.43;3.37;;;;;;;-143.84;61.08;45130.94;5068565;28;20995;-71
2023/05/06 02:12:20;;;;;;;5.47;2.77;;;;;;;-143.84;61.22;45110.00;5068868;28;20871;-71
2023/05/06 02:14:49;;;;;;;5.83;3.67;;;;;;;-143.84;62.21;45106.19;5068843;28;20441;-71
2023/05/06 02:17:16;;;;;;;3.90;3.50;;;;;;;-143.84;62.46;45106.19;5068982;28;20441;-71
2023/05/06 02:19:43;;;;;;;8.80;3.37;;;;;;;-143.84;62.70;45110.00;5068886;28;20450;-71
2023/05/06 02:22:10;;;;;;;6.73;3.10;;;;;;;-143.84;63.02;45115.72;5068843;28;20441;-72
2023/05/06 02:24:37;;;;;;;10.43;3.40;;;;;;;-143.84;63.67;45136.66;5068849;28;20501;-71
2023/05/06 02:27:05;;;;;;;4.23;3.90;;;;;;;-143.84;64.13;45104.28;5086816;28;20502;-72
2023/05/06 02:29:32;;;;;;;5.20;3.90;;;;;;;-143.84;64.37;45098.56;5089033;28;20481;-71
2023/05/06 02:32:00;;;;;;;4.07;3.17;;;;;;;-143.84;64.67;45100.47;5088654;28;20448;-71
2023/05/06 02:34:27;;;;;;;8.10;4.80;;;;;;;-143.84;64.94;45127.13;5088560;28;20466;-72
2023/05/06 02:36:55;;;;;;;4.60;3.97;;;;;;;-143.84;65.29;45110.00;5088744;28;20499;-72
2023/05/06 02:39:23;;;;;;;10.83;4.30;;;;;;;-143.84;65.47;45113.81;5088809;28;20465;-71
2023/05/06 02:41:50;;;;;;;22.57;5.60;;;;;;;-143.84;65.93;45115.72;5088558;28;20451;-71
2023/05/06 02:44:17;;;;;;;7.17;5.20;;;;;;;-143.84;66.03;45113.81;5088567;28;20490;-71
2023/05/06 02:46:44;;;;;;;10.20;5.53;;;;;;;-143.84;66.42;45125.22;5088449;28;20437;-71
2023/05/06 02:49:12;;;;;;;7.70;5.00;;;;;;;-143.84;66.54;45127.13;5091954;28;20444;-71
2023/05/06 02:51:40;;;;;;;10.37;4.13;;;;;;;-143.84;66.61;45130.94;5092358;28;20445;-71
2023/05/06 02:54:07;;;;;;;9.00;4.83;;;;;;;-143.84;66.98;45108.09;5092493;28;20436;-71
2023/05/06 02:56:34;;;;;;;13.57;4.70;;;;;;;-143.84;67.28;45119.53;5092418;28;20957;-71
2023/05/06 02:59:01;;;;;;;4.53;4.10;;;;;;;-143.84;67.10;45096.66;5084011;28;20451;-71
2023/05/06 03:01:28;;;;;;;4.93;3.80;;;;;;;-143.84;67.34;45094.78;5072067;28;20468;-71
2023/05/06 03:03:55;;;;;;;6.27;4.43;;;;;;;-143.84;67.44;45134.75;5071879;28;20441;-71
2023/05/06 03:06:24;;;;;;;11.17;4.17;;;;;;;-143.84;67.70;45117.63;5071778;28;20547;-71
2023/05/06 03:08:51;;;;;;;8.23;4.50;;;;;;;-143.84;67.87;45123.34;5072032;28;20445;-71
2023/05/06 03:11:18;;;;;;;6.77;4.53;;;;;;;-143.84;68.03;45117.63;5071839;28;20488;-72
2023/05/06 03:13:45;;;;;;;8.73;4.30;;;;;;;-143.84;68.35;45125.22;5071630;28;20495;-72
2023/05/06 03:16:13;;;;;;;4.10;3.70;;;;;;;-143.84;68.41;45136.66;5071357;28;20443;-72
2023/05/06 03:18:40;;;;;;;4.47;3.83;;;;;;;-143.84;68.30;45106.19;5071551;28;20441;-72
2023/05/06 03:21:07;;;;;;;7.57;4.50;;;;;;;-143.84;68.19;45075.72;5071524;28;20558;-71
2023/05/06 03:23:36;;;;;;;9.50;4.60;;;;;;;-143.84;68.38;45106.19;5071730;28;20437;-72
2023/05/06 03:26:03;;;;;;;5.97;4.47;;;;;;;-143.84;68.21;45102.38;5085427;28;20452;-71
2023/05/06 03:28:30;;;;;;;6.33;4.20;;;;;;;-143.84;68.63;45090.97;5091705;28;20447;-71
2023/05/06 03:30:58;;;;;;;10.47;5.13;;;;;;;-143.84;68.70;45115.72;5091571;28;20487;-71
2023/05/06 03:33:25;;;;;;;7.60;4.37;;;;;;;-143.84;67.60;45132.84;5091656;28;20493;-71
2023/05/06 03:35:52;;;;;;;13.03;4.80;;;;;;;-143.84;66.00;45111.91;5091844;28;20452;-71
2023/05/06 03:38:20;;;;;;;8.10;4.97;;;;;;;-143.84;64.18;45106.19;5091787;28;20448;-71
2023/05/06 03:40:48;;;;;;;4.77;4.10;;;;;;;-143.84;62.63;45106.19;5091143;28;20982;-71
2023/05/06 03:43:15;;;;;;;8.80;4.13;;;;;;;-143.84;61.30;45085.25;5091323;28;21017;-74
2023/05/06 03:45:43;;;;;;;6.30;4.20;;;;;;;-143.84;59.23;45108.09;5091544;28;20870;-70
2023/05/06 03:48:10;;;;;;;7.63;3.97;;;;;;;-143.84;56.78;45102.38;5091417;28;20444;-70
2023/05/06 03:50:38;;;;;;;6.33;4.17;;;;;;;-143.84;54.17;45052.88;5091281;28;20509;-70
2023/05/06 03:53:05;;;;;;;4.17;3.70;;;;;;;-143.84;52.31;45073.81;5091289;28;20501;-70
2023/05/06 03:55:32;;;;;;;7.00;3.90;;;;;;;-143.84;50.96;45068.13;5091187;28;20429;-70
2023/05/06 03:58:00;;;;;;;4.73;3.73;;;;;;;-143.84;49.72;45056.69;5090835;28;20444;-70
2023/05/06 04:00:27;;;;;;;7.43;4.13;;;;;;;-143.84;48.76;45090.97;5091343;28;20486;-70
2023/05/06 04:02:55;;;;;;;4.77;4.07;;;;;;;-143.84;49.09;45094.78;5091122;28;20910;-70
2023/05/06 04:05:22;;;;;;;5.67;3.40;;;;;;;-143.84;48.86;45085.25;5091108;28;20484;-70
2023/05/06 04:07:49;;;;;;;8.03;3.80;;;;;;;-143.84;47.94;45081.44;5091150;28;20489;-72
2023/05/06 04:10:16;;;;;;;4.63;3.80;;;;;;;-143.84;47.97;45066.22;5090583;28;20569;-70
2023/05/06 04:12:43;;;;;;;4.30;4.00;;;;;;;-143.84;47.71;45049.06;5090759;28;20448;-71
2023/05/06 04:15:12;;;;;;;11.67;3.47;;;;;;;-143.84;47.77;45064.31;5091034;28;20436;-71
2023/05/06 04:17:40;;;;;;;7.07;3.97;;;;;;;-143.84;48.59;45085.25;5091378;28;20441;-70
2023/05/06 04:20:10;;;;;;;3.67;3.27;;;;;;;-143.84;48.53;45049.06;5091169;28;20503;-70
2023/05/06 04:22:37;;;;;;;9.13;3.50;;;;;;;-143.84;49.03;45079.53;5090855;28;20452;-70
2023/05/06 04:25:05;;;;;;;4.63;4.00;;;;;;;-143.84;49.38;45071.91;5090794;28;20444;-70
2023/05/06 04:27:32;;;;;;;11.53;3.80;;;;;;;-143.84;49.00;45083.34;5090901;28;20519;-70
2023/05/06 04:29:59;;;;;;;6.60;4.63;;;;;;;-143.84;49.17;45089.06;5090366;28;20480;-69
2023/05/06 04:32:28;;;;;;;4.40;4.00;;;;;;;-143.84;48.76;45083.34;5090859;28;20436;-69
2023/05/06 04:34:56;;;;;;;4.20;3.87;;;;;;;-143.84;48.70;45062.41;5090605;28;20509;-68
2023/05/06 04:37:23;;;;;;;4.80;4.30;;;;;;;-143.84;48.70;45056.69;5090403;28;20464;-69
2023/05/06 04:39:50;;;;;;;6.53;4.00;;;;;;;-143.84;48.65;45079.53;5090309;28;20536;-68
2023/05/06 04:42:17;;;;;;;5.23;3.40;;;;;;;-143.84;48.20;45054.78;5079381;28;20481;-69
2023/05/06 04:44:44;;;;;;;6.97;4.40;;;;;;;-143.84;48.00;45068.13;5070009;28;20442;-69
2023/05/06 04:47:11;;;;;;;4.60;3.33;;;;;;;-143.84;47.76;45054.78;5070169;28;20442;-69
2023/05/06 04:49:40;;;;;;;4.60;3.53;;;;;;;-143.84;47.30;45077.63;5070113;28;20468;-69
2023/05/06 04:52:07;;;;;;;10.20;3.47;;;;;;;-143.84;47.49;45068.13;5069988;28;20485;-69
2023/05/06 04:54:34;;;;;;;11.07;3.73;;;;;;;-143.84;46.98;45045.25;5074194;28;20522;-69
2023/05/06 04:57:02;;;;;;;4.37;3.90;;;;;;;-143.84;46.43;45062.41;5090076;28;20442;-69
2023/05/06 04:59:29;;;;;;;6.33;3.37;;;;;;;-143.84;45.92;45026.22;5090171;28;20439;-69
2023/05/06 05:01:56;;;;;;;4.00;3.70;;;;;;;-143.84;45.55;45049.06;5089969;28;20447;-69
2023/05/06 05:04:23;;;;;;;6.63;3.87;;;;;;;-143.84;45.58;45035.75;5089248;28;20936;-69
2023/05/06 05:06:51;;;;;;;5.73;3.63;;;;;;;-143.84;45.76;45037.66;5089303;28;20441;-69
2023/05/06 05:09:18;;;;;;;7.57;3.27;;;;;;;-143.84;45.21;45052.88;5088495;28;20434;-69
2023/05/06 05:11:46;;;;;;;7.73;3.40;;;;;;;-143.84;45.52;45047.16;5088413;28;20470;-69
2023/05/06 05:14:13;;;;;;;4.40;3.23;;;;;;;-143.84;44.77;45052.88;5088916;28;20448;-69
2023/05/06 05:16:40;;;;;;;11.47;3.57;;;;;;;-143.84;44.81;45033.84;5089257;28;20443;-69
2023/05/06 05:19:07;;;;;;;5.53;3.70;;;;;;;-143.84;44.27;45041.44;5089009;28;20898;-69
2023/05/06 05:21:34;;;;;;;6.80;3.57;;;;;;;-143.84;44.49;45033.84;5089809;28;20512;-69
2023/05/06 05:24:03;;;;;;;6.30;4.00;;;;;;;-143.84;44.19;45020.50;5090009;28;20429;-69
2023/05/06 05:26:30;;;;;;;5.27;3.70;;;;;;;-143.84;43.56;45070.00;5089305;28;20445;-69
2023/05/06 05:28:57;;;;;;;5.50;3.47;;;;;;;-143.84;43.70;45033.84;5089437;28;20912;-69
2023/05/06 05:31:25;;;;;;;4.73;3.20;;;;;;;-143.84;43.80;45026.22;5089484;28;20580;-69
2023/05/06 05:33:52;;;;;;;7.97;3.57;;;;;;;-143.84;43.18;45035.75;5088894;28;21028;-69
2023/05/06 05:36:19;;;;;;;3.63;3.30;;;;;;;-143.84;43.36;45030.03;5089038;28;20439;-69
2023/05/06 05:38:47;;;;;;;5.27;2.90;;;;;;;-143.84;42.70;45030.03;5089020;28;20437;-69
2023/05/06 05:41:16;;;;;;;5.40;3.03;;;;;;;-143.84;42.10;45037.66;5089526;28;20428;-69
2023/05/06 05:43:43;;;;;;;7.53;3.73;;;;;;;-143.84;41.85;45026.22;5089236;28;20502;-69
2023/05/06 05:46:10;;;;;;;13.23;4.57;;;;;;;-143.84;41.72;45030.03;5089245;28;20445;-69
2023/05/06 05:48:38;;;;;;;6.30;3.10;;;;;;;-143.84;41.92;45031.94;5089212;28;20501;-69
2023/05/06 05:51:05;;;;;;;8.03;3.57;;;;;;;-143.84;42.18;45035.75;5089161;28;20476;-68
2023/05/06 05:53:32;;;;;;;7.93;3.23;;;;;;;-143.84;41.55;45018.59;5089122;28;20501;-68
2023/05/06 05:55:59;;;;;;;10.03;3.80;;;;;;;-143.84;41.97;45037.66;5089247;28;20445;-68
2023/05/06 05:58:28;;;;;;;5.20;3.07;;;;;;;-143.84;41.73;45018.59;5089148;28;20443;-68
2023/05/06 06:00:55;;;;;;;7.30;3.57;;;;;;;-143.84;41.59;45035.75;5089318;28;20432;-68
2023/05/06 06:03:22;;;;;;;4.40;3.83;;;;;;;-143.84;41.34;45026.22;5089253;28;20464;-68
2023/05/06 06:05:51;;;;;;;11.40;3.50;;;;;;;-143.84;41.08;45031.94;5068652;28;20555;-69
2023/05/06 06:08:18;;;;;;;8.23;3.33;;;;;;;-143.84;41.39;45041.44;5048276;28;21191;-69
2023/05/06 06:10:46;;;;;;;11.13;3.73;;;;;;;-143.84;41.63;45035.75;5048383;28;20477;-69
2023/05/06 06:13:13;;;;;;;7.07;3.60;;;;;;;-143.84;40.63;44995.75;5048878;28;20522;-68
2023/05/06 06:15:42;;;;;;;10.17;3.03;;;;;;;-143.84;40.16;45026.22;5048923;28;20506;-69
2023/05/06 06:18:09;;;;;;;3.37;3.10;;;;;;;-143.84;39.52;45016.69;5048555;28;20510;-69
2023/05/06 06:20:37;;;;;;;5.83;3.33;;;;;;;-143.84;40.04;45022.41;5048792;28;20505;-69
2023/05/06 06:23:04;;;;;;;4.73;3.03;;;;;;;-143.84;40.63;45030.03;5052897;28;20431;-69
2023/05/06 06:25:31;;;;;;;3.70;3.40;;;;;;;-143.84;40.20;45020.50;5052615;28;20463;-69
2023/05/06 06:27:58;;;;;;;15.83;3.90;;;;;;;-143.84;39.44;45016.69;5071931;28;21397;-69
2023/05/06 06:30:26;;;;;;;2.83;2.63;;;;;;;-143.84;40.00;44991.94;5073234;28;20818;-69
2023/05/06 06:32:55;;;;;;;9.13;3.17;;;;;;;-143.84;40.10;44995.75;5072702;28;20476;-70
2023/05/06 06:35:22;;;;;;;7.23;3.77;;;;;;;-143.84;40.46;45005.28;5072688;28;20463;-69
2023/05/06 06:37:50;;;;;;;10.93;3.30;;;;;;;-143.84;40.06;45009.09;5072107;28;20452;-69
2023/05/06 06:40:17;;;;;;;4.80;3.70;;;;;;;-143.84;40.30;45009.09;5071980;28;20443;-69
2023/05/06 06:42:44;;;;;;;10.53;2.80;;;;;;;-143.84;39.25;45026.22;5072348;28;20447;-69
2023/05/06 06:45:13;;;;;;;5.40;2.97;;;;;;;-143.84;38.89;45024.31;5072816;28;20457;-69
2023/05/06 06:47:40;;;;;;;10.83;2.90;;;;;;;-143.84;39.47;45005.28;5072224;28;20443;-69
2023/05/06 06:50:10;;;;;;;4.70;3.63;;;;;;;-143.84;39.38;44976.72;5071930;28;20458;-69
2023/05/06 06:52:37;;;;;;;3.23;2.70;;;;;;;-143.84;38.97;45003.38;5072087;28;20506;-70
2023/05/06 06:55:05;;;;;;;4.37;2.90;;;;;;;-143.84;38.87;45005.28;5071585;28;20823;-69
2023/05/06 06:57:32;;;;;;;4.87;3.07;;;;;;;-143.84;38.49;45016.69;5069887;28;20470;-69
2023/05/06 06:59:59;;;;;;;13.20;3.23;;;;;;;-143.84;38.78;45001.47;5072386;28;20448;-69
2023/05/06 07:02:26;;;;;;;3.67;3.37;;;;;;;-143.84;39.49;44997.66;5072204;28;20455;-69
2023/05/06 07:04:54;;;;;;;5.43;3.17;;;;;;;-143.84;38.74;45005.28;5077220;28;20487;-69
2023/05/06 07:07:22;;;;;;;7.90;3.23;;;;;;;-143.84;39.49;45014.78;5092167;28;20467;-69
2023/05/06 07:09:49;;;;;;;5.40;3.13;;;;;;;-143.84;39.39;44993.84;5091792;28;20446;-69
2023/05/06 07:12:16;;;;;;;3.80;3.03;;;;;;;-143.84;39.56;45010.97;5091633;28;20530;-69
2023/05/06 07:14:43;;;;;;;7.43;3.23;;;;;;;-143.84;39.53;44999.56;5091686;28;20438;-69
2023/05/06 07:17:11;;;;;;;4.17;3.20;;;;;;;-143.84;39.07;45010.97;5092097;28;20440;-70
2023/05/06 07:19:38;;;;;;;4.53;3.17;;;;;;;-143.84;39.61;45009.09;5091886;28;20442;-69
2023/05/06 07:22:05;;;;;;;5.93;3.13;;;;;;;-143.84;39.32;45001.47;5091900;28;20440;-69
2023/05/06 07:24:33;;;;;;;6.30;3.60;;;;;;;-143.84;39.63;45020.50;5091962;28;20495;-69
2023/05/06 07:27:01;;;;;;;9.33;3.80;;;;;;;-143.84;39.60;45005.28;5081498;28;20452;-70
2023/05/06 07:29:28;;;;;;;6.23;2.80;;;;;;;-143.84;39.63;45016.69;5071655;28;20451;-70
2023/05/06 07:31:55;;;;;;;6.13;3.27;;;;;;;-143.84;40.08;45010.97;5071590;28;20537;-70
2023/05/06 07:34:22;;;;;;;4.93;2.77;;;;;;;-143.84;38.98;45003.38;5070681;28;20437;-69
2023/05/06 07:36:49;;;;;;;2.43;2.23;;;;;;;-143.84;39.52;45001.47;5071517;28;20439;-69
2023/05/06 07:39:16;;;;;;;7.63;3.73;;;;;;;-143.84;39.66;44990.03;5072513;28;20436;-69
2023/05/06 07:41:45;;;;;;;11.93;3.07;;;;;;;-143.84;39.10;44995.75;5091632;28;20447;-68
2023/05/06 07:44:12;;;;;;;6.87;3.03;;;;;;;-143.84;38.89;44999.56;5090908;28;20444;-69
2023/05/06 07:46:40;;;;;;;7.70;3.10;;;;;;;-143.84;39.06;45007.19;5091215;28;20439;-69
2023/05/06 07:49:07;;;;;;;8.13;3.10;;;;;;;-143.84;39.37;44982.41;5091241;28;20520;-69
2023/05/06 07:51:34;;;;;;;9.27;3.37;;;;;;;-143.84;38.86;45003.38;5091375;28;20505;-69
2023/05/06 07:54:02;;;;;;;13.07;4.03;;;;;;;-143.84;39.26;44984.31;5091371;28;20448;-70
2023/05/06 07:56:29;;;;;;;4.67;3.37;;;;;;;-143.84;39.90;44991.94;5091093;28;20471;-70
2023/05/06 07:58:58;;;;;;;8.83;3.63;;;;;;;-143.84;39.80;45016.69;5075721;28;20530;-69
2023/05/06 08:01:25;;;;;;;4.73;3.13;;;;;;;-143.84;39.74;45005.28;5070992;28;20444;-71
2023/05/06 08:03:52;;;;;;;7.03;2.97;;;;;;;-143.84;39.29;45030.03;5073434;28;20971;-70
2023/05/06 08:06:19;;;;;;;6.13;3.33;;;;;;;-143.84;40.46;45014.78;5070705;28;20939;-71
2023/05/06 08:08:46;;;;;;;4.97;3.67;;;;;;;-143.84;40.84;45014.78;5070327;28;20452;-70
2023/05/06 08:11:13;;;;;;;5.77;3.73;;;;;;;-143.84;41.04;44990.03;5070959;28;20483;-70
2023/05/06 08:13:41;;;;;;;4.23;3.20;;;;;;;-143.84;41.38;44976.72;5070658;28;20440;-70
2023/05/06 08:16:09;;;;;;;3.40;3.10;;;;;;;-143.84;41.24;44995.75;5070635;28;20438;-70
2023/05/06 08:18:36;;;;;;;3.70;3.40;;;;;;;-143.84;40.77;44991.94;5070582;28;21018;-70
2023/05/06 08:21:04;;;;;;;5.43;3.13;;;;;;;-143.84;40.68;45018.59;5070591;28;20440;-70
2023/05/06 08:23:31;;;;;;;7.00;4.00;;;;;;;-143.84;41.10;44997.66;5070613;28;20498;-70
2023/05/06 08:25:59;;;;;;;6.43;3.17;;;;;;;-143.84;41.26;44974.81;5078348;28;20455;-70
2023/05/06 08:28:28;;;;;;;4.00;3.47;;;;;;;-143.84;40.31;44980.53;5070575;28;20840;-70
2023/05/06 08:30:55;;;;;;;9.07;3.27;;;;;;;-143.84;40.23;45010.97;5070248;28;20511;-69
2023/05/06 08:33:23;;;;;;;7.77;3.20;;;;;;;-143.84;40.19;45018.59;5070474;28;21163;-70
2023/05/06 08:35:50;;;;;;;14.50;3.20;;;;;;;-143.84;39.92;44984.31;5070177;28;20444;-70
2023/05/06 08:38:17;;;;;;;4.23;3.40;;;;;;;-143.84;40.09;45005.28;5074132;28;20508;-70
2023/05/06 08:40:45;;;;;;;5.50;3.30;;;;;;;-143.84;40.14;44993.84;5090111;28;20450;-71
2023/05/06 08:43:18;;;;;;;6.80;3.10;;;;;;;-143.84;40.61;44980.53;5090428;28;20443;-71
2023/05/06 08:45:46;;;;;;;3.70;3.17;;;;;;;-143.84;39.90;44993.84;5089538;28;20546;-71
2023/05/06 08:48:13;;;;;;;8.87;4.13;;;;;;;-143.84;41.01;44986.22;5090680;28;20491;-70
2023/05/06 08:50:43;;;;;;;7.50;3.77;;;;;;;-143.84;40.35;44988.13;5090334;28;20467;-70
2023/05/06 08:53:12;;;;;;;10.20;3.77;;;;;;;-143.84;39.46;45012.88;5090054;28;20486;-70
2023/05/06 08:55:41;;;;;;;13.13;3.97;;;;;;;-143.84;39.59;44988.13;5090022;28;20533;-70
2023/05/06 08:58:10;;;;;;;13.70;5.20;;;;;;;-143.84;39.23;45010.97;5090021;28;20455;-71
2023/05/06 09:00:37;;;;;;;3.57;3.23;;;;;;;-143.84;40.00;44988.13;5090357;28;20434;-71
2023/05/06 09:03:04;;;;;;;9.50;2.40;;;;;;;-143.84;39.09;44999.56;5089844;28;20446;-71
2023/05/06 09:05:31;;;;;;;14.53;3.90;;;;;;;-143.84;39.06;44971.00;5089479;28;20544;-71
2023/05/06 09:08:00;;;;;;;5.07;3.67;;;;;;;-143.84;39.88;44971.00;5089924;28;20940;-71
2023/05/06 09:10:32;;;;;;;4.80;3.40;;;;;;;-143.84;39.73;44984.31;5089658;28;20499;-71
2023/05/06 09:12:59;;;;;;;6.80;3.60;;;;;;;-143.84;38.95;44984.31;5089783;28;20922;-71
2023/05/06 09:15:26;;;;;;;8.53;3.97;;;;;;;-143.84;38.63;44988.13;5090042;28;20875;-71
2023/05/06 09:17:56;;;;;;;11.73;3.33;;;;;;;-143.84;39.64;44980.53;5089541;28;20501;-71
2023/05/06 09:20:23;;;;;;;14.10;3.60;;;;;;;-143.84;39.34;44993.84;5089522;28;20881;-71
2023/05/06 09:22:51;;;;;;;3.67;3.30;;;;;;;-143.84;38.75;44991.94;5089188;28;20910;-71
2023/05/06 09:25:19;;;;;;;5.60;3.07;;;;;;;-143.84;40.52;44980.53;5089829;28;20504;-70
2023/05/06 09:27:46;;;;;;;15.37;3.43;;;;;;;-143.84;39.26;44997.66;5089900;28;20883;-71
2023/05/06 09:30:14;;;;;;;12.70;3.90;;;;;;;-143.84;40.09;45007.19;5089568;28;20504;-70
2023/05/06 09:32:41;;;;;;;6.40;3.17;;;;;;;-143.84;41.11;45003.38;5088863;28;21081;-71
2023/05/06 09:35:10;;;;;;;7.33;2.90;;;;;;;-143.84;38.66;44976.72;5088559;28;20440;-71
2023/05/06 09:37:37;;;;;;;7.37;3.60;;;;;;;-143.84;40.27;44988.13;5088817;28;20434;-70
2023/05/06 09:40:05;;;;;;;10.40;3.13;;;;;;;-143.84;39.80;45012.88;5088947;28;20442;-70
2023/05/06 09:42:34;;;;;;;9.43;3.10;;;;;;;-143.84;39.80;45033.84;5088656;28;20520;-71
2023/05/06 09:45:02;;;;;;;6.17;3.33;;;;;;;-143.84;40.69;44995.75;5088869;28;20878;-71
2023/05/06 09:47:33;;;;;;;9.70;3.37;;;;;;;-143.84;40.65;45001.47;5089246;28;20487;-71
2023/05/06 09:50:01;;;;;;;7.83;3.80;;;;;;;-143.84;40.34;45030.03;5089043;28;20439;-71
2023/05/06 09:52:28;;;;;;;6.53;3.40;;;;;;;-143.84;41.61;45012.88;5089106;28;20502;-71
2023/05/06 09:54:56;;;;;;;5.30;3.87;;;;;;;-143.84;41.54;44993.84;5088917;28;20935;-71
2023/05/06 09:57:24;;;;;;;10.73;3.20;;;;;;;-143.84;40.61;44995.75;5088623;28;20437;-71
2023/05/06 09:59:55;;;;;;;7.13;3.10;;;;;;;-143.84;39.44;45005.28;5089020;28;20435;-71
2023/05/06 10:02:23;;;;;;;4.70;3.50;;;;;;;-143.84;40.45;44986.22;5088889;28;20446;-70
2023/05/06 10:04:50;;;;;;;3.40;3.10;;;;;;;-143.84;39.90;45003.38;5088751;28;20988;-71
2023/05/06 10:07:22;;;;;;;10.83;2.90;;;;;;;-143.84;40.05;44974.81;5089301;28;20512;-71
2023/05/06 10:09:51;;;;;;;14.10;3.50;;;;;;;-143.84;39.69;45026.22;5088857;28;20451;-71
2023/05/06 10:12:20;;;;;;;7.80;2.67;;;;;;;-143.84;41.12;45016.69;5088875;28;20485;-71
2023/05/06 10:14:47;;;;;;;9.13;2.83;;;;;;;-143.84;39.99;45003.38;5088904;28;20473;-71
2023/05/06 10:17:18;;;;;;;5.90;2.90;;;;;;;-143.84;40.21;44999.56;5088784;28;20435;-71
2023/05/06 10:19:47;;;;;;;6.40;3.10;;;;;;;-143.84;39.65;44988.13;5088900;28;20439;-70
2023/05/06 10:22:22;;;;;;;4.10;3.10;;;;;;;-143.84;39.04;44995.75;5088850;28;20941;-70
2023/05/06 10:24:56;;;;;;;5.57;3.20;;;;;;;-143.84;39.36;45014.78;5089059;28;20436;-70
2023/05/06 10:27:25;;;;;;;5.60;3.53;;;;;;;-143.84;40.26;44997.66;5088561;28;20435;-70
2023/05/06 10:29:54;;;;;;;8.40;3.37;;;;;;;-143.84;38.61;44984.31;5088783;28;20443;-70
2023/05/06 10:32:25;;;;;;;11.50;3.03;;;;;;;-143.84;39.15;44984.31;5088660;28;20651;-71
2023/05/06 10:34:55;;;;;;;11.63;3.00;;;;;;;-143.84;39.51;45028.13;5088559;28;20446;-70
2023/05/06 10:37:24;;;;;;;3.53;3.20;;;;;;;-143.84;40.47;45010.97;5088671;28;20913;-70
2023/05/06 10:39:53;;;;;;;11.43;3.50;;;;;;;-143.84;40.49;44982.41;5088822;28;21424;-70
2023/05/06 10:42:26;;;;;;;3.63;3.17;;;;;;;-143.84;41.24;45001.47;5088645;28;20440;-70
2023/05/06 10:45:00;;;;;;;10.23;3.67;;;;;;;-143.84;41.73;45009.09;5088577;28;20441;-70
2023/05/06 10:47:29;;;;;;;11.40;3.40;;;;;;;-143.84;43.62;45016.69;5088518;28;20437;-70
2023/05/06 10:50:21;;;;;;;14.10;4.13;;;;;;;-143.84;42.65;44976.72;5088638;28;20441;-70
2023/05/06 10:52:52;;;;;;;9.27;3.63;;;;;;;-143.84;41.84;44986.22;5089010;28;20485;-70
2023/05/06 10:55:26;;;;;;;6.07;3.80;;;;;;;-143.84;41.48;44991.94;5088798;28;21091;-70
2023/05/06 10:57:56;;;;;;;8.07;3.10;;;;;;;-143.84;43.30;45010.97;5088658;28;20450;-69
2023/05/06 11:00:23;;;;;;;12.30;3.63;;;;;;;-143.84;41.37;44997.66;5088512;28;20928;-69
2023/05/06 11:03:02;;;;;;;7.90;3.47;;;;;;;-143.84;41.18;44995.75;5088324;28;20438;-70
2023/05/06 11:05:29;;;;;;;9.57;3.60;;;;;;;-143.84;41.82;45003.38;5088095;28;20997;-70
2023/05/06 11:08:11;;;;;;;7.77;3.53;;;;;;;-143.84;42.26;45001.47;5088740;28;20443;-70
2023/05/06 11:10:38;;;;;;;5.97;3.20;;;;;;;-143.84;41.14;44982.41;5092275;28;20532;-69
2023/05/06 11:13:23;;;;;;;6.70;3.50;;;;;;;-143.84;40.94;45035.75;5091960;28;20556;-70
2023/05/06 11:15:51;;;;;;;3.30;3.00;;;;;;;-143.84;41.61;45020.50;5092041;28;20455;-70
2023/05/06 11:18:47;;;;;;;14.27;3.40;;;;;;;-143.84;41.12;44991.94;5091689;28;20445;-70
2023/05/06 11:21:39;;;;;;;7.70;3.20;;;;;;;-143.84;41.03;44988.13;5092037;28;20446;-70